sensor_id;sensor_type;location;lat;lon;timestamp;P1;durP1;ratioP1;P2;durP2;ratioP2
7753;SDS011;3921;42.266;23.122;2022-07-23T00:02:05;7.80;;;5.67;;
7753;SDS011;3921;42.266;23.122;2022-07-23T00:04:32;8.57;;;5.30;;
7753;SDS011;3921;42.266;23.122;2022-07-23T00:06:59;8.07;;;5.33;;
7753;SDS011;3921;42.266;23.122;2022-07-23T00:09:28;7.67;;;5.27;;
7753;SDS011;3921;42.266;23.122;2022-07-23T00:11:57;7.97;;;5.37;;
7753;SDS011;3921;42.266;23.122;2022-07-23T00:14:24;7.00;;;5.37;;
7753;SDS011;3921;42.266;23.122;2022-07-23T00:16:51;6.10;;;5.50;;
7753;SDS011;3921;42.266;23.122;2022-07-23T00:19:20;9.50;;;5.63;;
7753;SDS011;3921;42.266;23.122;2022-07-23T00:21:47;9.70;;;5.83;;
7753;SDS011;3921;42.266;23.122;2022-07-23T00:24:14;6.33;;;5.73;;
7753;SDS011;3921;42.266;23.122;2022-07-23T00:26:41;6.47;;;5.70;;
7753;SDS011;3921;42.266;23.122;2022-07-23T00:29:08;6.57;;;5.00;;
7753;SDS011;3921;42.266;23.122;2022-07-23T00:31:35;9.10;;;5.70;;
7753;SDS011;3921;42.266;23.122;2022-07-23T00:34:02;6.53;;;5.73;;
7753;SDS011;3921;42.266;23.122;2022-07-23T00:36:31;7.07;;;5.53;;
7753;SDS011;3921;42.266;23.122;2022-07-23T00:38:59;9.70;;;5.70;;
7753;SDS011;3921;42.266;23.122;2022-07-23T00:41:37;6.77;;;5.80;;
7753;SDS011;3921;42.266;23.122;2022-07-23T00:44:14;7.47;;;5.83;;
7753;SDS011;3921;42.266;23.122;2022-07-23T00:46:44;6.13;;;5.53;;
7753;SDS011;3921;42.266;23.122;2022-07-23T00:49:18;7.33;;;5.60;;
7753;SDS011;3921;42.266;23.122;2022-07-23T00:51:57;7.47;;;5.43;;
7753;SDS011;3921;42.266;23.122;2022-07-23T00:54:31;7.47;;;5.90;;
7753;SDS011;3921;42.266;23.122;2022-07-23T00:56:59;8.03;;;5.20;;
7753;SDS011;3921;42.266;23.122;2022-07-23T00:59:30;7.90;;;5.93;;
7753;SDS011;3921;42.266;23.122;2022-07-23T01:01:57;7.67;;;5.73;;
7753;SDS011;3921;42.266;23.122;2022-07-23T01:04:25;7.53;;;5.60;;
7753;SDS011;3921;42.266;23.122;2022-07-23T01:06:57;8.63;;;5.40;;
7753;SDS011;3921;42.266;23.122;2022-07-23T01:09:25;6.07;;;5.43;;
7753;SDS011;3921;42.266;23.122;2022-07-23T01:11:53;8.50;;;5.50;;
7753;SDS011;3921;42.266;23.122;2022-07-23T01:14:22;6.70;;;5.43;;
7753;SDS011;3921;42.266;23.122;2022-07-23T01:16:52;9.83;;;5.93;;
7753;SDS011;3921;42.266;23.122;2022-07-23T01:19:20;7.53;;;5.50;;
7753;SDS011;3921;42.266;23.122;2022-07-23T01:21:50;6.97;;;5.60;;
7753;SDS011;3921;42.266;23.122;2022-07-23T01:24:21;7.80;;;5.57;;
7753;SDS011;3921;42.266;23.122;2022-07-23T01:26:51;6.57;;;5.80;;
7753;SDS011;3921;42.266;23.122;2022-07-23T01:29:19;8.80;;;5.50;;
7753;SDS011;3921;42.266;23.122;2022-07-23T01:31:47;6.27;;;5.30;;
7753;SDS011;3921;42.266;23.122;2022-07-23T01:34:15;7.20;;;5.70;;
7753;SDS011;3921;42.266;23.122;2022-07-23T01:36:43;9.57;;;5.03;;
7753;SDS011;3921;42.266;23.122;2022-07-23T01:39:11;6.10;;;5.37;;
7753;SDS011;3921;42.266;23.122;2022-07-23T01:41:41;7.77;;;5.80;;
7753;SDS011;3921;42.266;23.122;2022-07-23T01:44:09;8.47;;;5.33;;
7753;SDS011;3921;42.266;23.122;2022-07-23T01:46:38;7.30;;;5.53;;
7753;SDS011;3921;42.266;23.122;2022-07-23T01:49:05;9.93;;;5.87;;
7753;SDS011;3921;42.266;23.122;2022-07-23T01:51:33;6.33;;;5.50;;
7753;SDS011;3921;42.266;23.122;2022-07-23T01:54:00;6.47;;;5.83;;
7753;SDS011;3921;42.266;23.122;2022-07-23T01:56:29;6.90;;;5.63;;
7753;SDS011;3921;42.266;23.122;2022-07-23T01:58:58;7.63;;;5.83;;
7753;SDS011;3921;42.266;23.122;2022-07-23T02:01:26;7.80;;;5.73;;
7753;SDS011;3921;42.266;23.122;2022-07-23T02:03:53;6.30;;;5.40;;
7753;SDS011;3921;42.266;23.122;2022-07-23T02:06:23;6.97;;;5.83;;
7753;SDS011;3921;42.266;23.122;2022-07-23T02:08:52;6.47;;;5.80;;
7753;SDS011;3921;42.266;23.122;2022-07-23T02:11:19;8.13;;;6.30;;
7753;SDS011;3921;42.266;23.122;2022-07-23T02:13:47;6.17;;;5.27;;
7753;SDS011;3921;42.266;23.122;2022-07-23T02:16:16;8.90;;;6.43;;
7753;SDS011;3921;42.266;23.122;2022-07-23T02:18:44;6.97;;;5.33;;
7753;SDS011;3921;42.266;23.122;2022-07-23T02:21:12;7.27;;;6.30;;
7753;SDS011;3921;42.266;23.122;2022-07-23T02:23:39;8.30;;;5.97;;
7753;SDS011;3921;42.266;23.122;2022-07-23T02:26:06;8.27;;;6.03;;
7753;SDS011;3921;42.266;23.122;2022-07-23T02:28:33;7.03;;;5.70;;
7753;SDS011;3921;42.266;23.122;2022-07-23T02:31:00;7.53;;;5.63;;
7753;SDS011;3921;42.266;23.122;2022-07-23T02:33:29;6.63;;;5.93;;
7753;SDS011;3921;42.266;23.122;2022-07-23T02:35:56;8.33;;;5.93;;
7753;SDS011;3921;42.266;23.122;2022-07-23T02:38:23;8.80;;;5.77;;
7753;SDS011;3921;42.266;23.122;2022-07-23T02:40:51;8.43;;;6.03;;
7753;SDS011;3921;42.266;23.122;2022-07-23T02:43:18;7.60;;;6.17;;
7753;SDS011;3921;42.266;23.122;2022-07-23T02:45:46;7.87;;;6.13;;
7753;SDS011;3921;42.266;23.122;2022-07-23T02:48:13;7.60;;;5.83;;
7753;SDS011;3921;42.266;23.122;2022-07-23T02:50:42;9.70;;;6.33;;
7753;SDS011;3921;42.266;23.122;2022-07-23T02:53:09;7.67;;;5.53;;
7753;SDS011;3921;42.266;23.122;2022-07-23T02:59:23;7.27;;;5.87;;
7753;SDS011;3921;42.266;23.122;2022-07-23T03:01:51;8.97;;;6.57;;
7753;SDS011;3921;42.266;23.122;2022-07-23T03:04:22;10.87;;;6.37;;
7753;SDS011;3921;42.266;23.122;2022-07-23T03:07:12;8.47;;;6.23;;
7753;SDS011;3921;42.266;23.122;2022-07-23T03:09:41;9.50;;;6.70;;
7753;SDS011;3921;42.266;23.122;2022-07-23T03:12:14;8.40;;;6.10;;
7753;SDS011;3921;42.266;23.122;2022-07-23T03:14:45;7.73;;;6.30;;
7753;SDS011;3921;42.266;23.122;2022-07-23T03:17:14;13.77;;;6.37;;
7753;SDS011;3921;42.266;23.122;2022-07-23T03:19:46;10.03;;;6.73;;
7753;SDS011;3921;42.266;23.122;2022-07-23T03:22:17;8.80;;;6.33;;
7753;SDS011;3921;42.266;23.122;2022-07-23T03:24:46;12.87;;;6.90;;
7753;SDS011;3921;42.266;23.122;2022-07-23T03:27:26;9.60;;;6.90;;
7753;SDS011;3921;42.266;23.122;2022-07-23T03:29:57;9.73;;;6.90;;
7753;SDS011;3921;42.266;23.122;2022-07-23T03:32:26;8.97;;;6.30;;
7753;SDS011;3921;42.266;23.122;2022-07-23T03:34:54;15.07;;;6.53;;
7753;SDS011;3921;42.266;23.122;2022-07-23T03:37:23;9.07;;;6.70;;
7753;SDS011;3921;42.266;23.122;2022-07-23T03:39:50;12.60;;;6.37;;
7753;SDS011;3921;42.266;23.122;2022-07-23T03:42:17;10.07;;;6.57;;
7753;SDS011;3921;42.266;23.122;2022-07-23T03:44:44;9.27;;;6.70;;
7753;SDS011;3921;42.266;23.122;2022-07-23T03:47:12;9.77;;;6.70;;
7753;SDS011;3921;42.266;23.122;2022-07-23T03:49:42;8.83;;;6.83;;
7753;SDS011;3921;42.266;23.122;2022-07-23T03:52:11;7.20;;;6.23;;
7753;SDS011;3921;42.266;23.122;2022-07-23T03:54:41;9.00;;;6.20;;
7753;SDS011;3921;42.266;23.122;2022-07-23T03:57:09;12.53;;;6.77;;
7753;SDS011;3921;42.266;23.122;2022-07-23T03:59:56;10.03;;;6.83;;
7753;SDS011;3921;42.266;23.122;2022-07-23T04:02:23;10.07;;;6.77;;
7753;SDS011;3921;42.266;23.122;2022-07-23T04:04:51;12.03;;;6.70;;
7753;SDS011;3921;42.266;23.122;2022-07-23T04:07:19;11.37;;;6.50;;
7753;SDS011;3921;42.266;23.122;2022-07-23T04:09:53;7.27;;;6.00;;
7753;SDS011;3921;42.266;23.122;2022-07-23T04:15:01;8.20;;;6.03;;
7753;SDS011;3921;42.266;23.122;2022-07-23T04:17:30;8.50;;;7.10;;
7753;SDS011;3921;42.266;23.122;2022-07-23T04:25:06;8.50;;;6.40;;
7753;SDS011;3921;42.266;23.122;2022-07-23T04:27:36;12.43;;;6.37;;
7753;SDS011;3921;42.266;23.122;2022-07-23T04:30:09;12.77;;;7.30;;
7753;SDS011;3921;42.266;23.122;2022-07-23T04:32:37;10.10;;;6.87;;
7753;SDS011;3921;42.266;23.122;2022-07-23T04:35:05;13.90;;;6.63;;
7753;SDS011;3921;42.266;23.122;2022-07-23T04:37:33;11.47;;;6.90;;
7753;SDS011;3921;42.266;23.122;2022-07-23T04:40:02;14.57;;;6.93;;
7753;SDS011;3921;42.266;23.122;2022-07-23T04:42:31;10.57;;;7.80;;
7753;SDS011;3921;42.266;23.122;2022-07-23T04:44:58;9.47;;;6.63;;
7753;SDS011;3921;42.266;23.122;2022-07-23T04:47:25;11.70;;;7.03;;
7753;SDS011;3921;42.266;23.122;2022-07-23T04:49:52;11.73;;;7.20;;
7753;SDS011;3921;42.266;23.122;2022-07-23T04:52:19;8.73;;;7.13;;
7753;SDS011;3921;42.266;23.122;2022-07-23T04:54:47;12.93;;;7.13;;
7753;SDS011;3921;42.266;23.122;2022-07-23T04:57:14;10.03;;;6.40;;
7753;SDS011;3921;42.266;23.122;2022-07-23T04:59:43;11.90;;;6.93;;
7753;SDS011;3921;42.266;23.122;2022-07-23T05:02:10;8.43;;;7.00;;
7753;SDS011;3921;42.266;23.122;2022-07-23T05:04:38;10.07;;;6.83;;
7753;SDS011;3921;42.266;23.122;2022-07-23T05:07:06;10.93;;;7.20;;
7753;SDS011;3921;42.266;23.122;2022-07-23T05:09:35;9.70;;;7.20;;
7753;SDS011;3921;42.266;23.122;2022-07-23T05:12:03;9.43;;;6.87;;
7753;SDS011;3921;42.266;23.122;2022-07-23T05:14:30;13.53;;;7.53;;
7753;SDS011;3921;42.266;23.122;2022-07-23T05:17:01;9.60;;;7.20;;
7753;SDS011;3921;42.266;23.122;2022-07-23T05:19:28;12.17;;;6.30;;
7753;SDS011;3921;42.266;23.122;2022-07-23T05:21:55;11.43;;;7.20;;
7753;SDS011;3921;42.266;23.122;2022-07-23T05:24:23;9.67;;;7.13;;
7753;SDS011;3921;42.266;23.122;2022-07-23T05:26:50;11.43;;;7.03;;
7753;SDS011;3921;42.266;23.122;2022-07-23T05:29:17;9.23;;;7.10;;
7753;SDS011;3921;42.266;23.122;2022-07-23T05:31:45;9.07;;;6.90;;
7753;SDS011;3921;42.266;23.122;2022-07-23T05:37:25;12.07;;;7.67;;
7753;SDS011;3921;42.266;23.122;2022-07-23T05:39:52;12.37;;;7.67;;
7753;SDS011;3921;42.266;23.122;2022-07-23T05:42:19;15.10;;;7.03;;
7753;SDS011;3921;42.266;23.122;2022-07-23T05:44:47;14.97;;;6.80;;
7753;SDS011;3921;42.266;23.122;2022-07-23T05:47:14;11.60;;;6.97;;
7753;SDS011;3921;42.266;23.122;2022-07-23T05:49:45;9.97;;;7.17;;
7753;SDS011;3921;42.266;23.122;2022-07-23T05:52:14;12.60;;;7.83;;
7753;SDS011;3921;42.266;23.122;2022-07-23T05:54:42;15.90;;;8.10;;
7753;SDS011;3921;42.266;23.122;2022-07-23T05:57:11;10.43;;;6.87;;
7753;SDS011;3921;42.266;23.122;2022-07-23T05:59:47;10.17;;;7.60;;
7753;SDS011;3921;42.266;23.122;2022-07-23T06:02:14;14.00;;;7.20;;
7753;SDS011;3921;42.266;23.122;2022-07-23T06:04:41;8.67;;;7.23;;
7753;SDS011;3921;42.266;23.122;2022-07-23T06:07:11;9.03;;;6.83;;
7753;SDS011;3921;42.266;23.122;2022-07-23T06:09:38;10.53;;;7.40;;
7753;SDS011;3921;42.266;23.122;2022-07-23T06:12:05;10.70;;;7.20;;
7753;SDS011;3921;42.266;23.122;2022-07-23T06:14:33;12.37;;;7.40;;
7753;SDS011;3921;42.266;23.122;2022-07-23T06:17:00;7.50;;;6.77;;
7753;SDS011;3921;42.266;23.122;2022-07-23T06:19:27;9.70;;;6.93;;
7753;SDS011;3921;42.266;23.122;2022-07-23T06:21:56;7.47;;;6.53;;
7753;SDS011;3921;42.266;23.122;2022-07-23T06:24:23;8.73;;;6.87;;
7753;SDS011;3921;42.266;23.122;2022-07-23T06:26:50;16.13;;;7.50;;
7753;SDS011;3921;42.266;23.122;2022-07-23T06:29:17;10.87;;;7.33;;
7753;SDS011;3921;42.266;23.122;2022-07-23T06:31:44;10.13;;;6.73;;
7753;SDS011;3921;42.266;23.122;2022-07-23T06:34:11;10.13;;;6.67;;
7753;SDS011;3921;42.266;23.122;2022-07-23T06:36:38;9.43;;;6.57;;
7753;SDS011;3921;42.266;23.122;2022-07-23T06:39:07;8.00;;;6.07;;
7753;SDS011;3921;42.266;23.122;2022-07-23T06:41:34;10.37;;;7.23;;
7753;SDS011;3921;42.266;23.122;2022-07-23T06:44:02;9.30;;;7.33;;
7753;SDS011;3921;42.266;23.122;2022-07-23T06:46:30;10.37;;;7.20;;
7753;SDS011;3921;42.266;23.122;2022-07-23T06:48:58;8.77;;;6.30;;
7753;SDS011;3921;42.266;23.122;2022-07-23T06:51:25;8.97;;;6.73;;
7753;SDS011;3921;42.266;23.122;2022-07-23T06:53:52;9.70;;;7.20;;
7753;SDS011;3921;42.266;23.122;2022-07-23T06:56:20;13.07;;;7.20;;
7753;SDS011;3921;42.266;23.122;2022-07-23T06:58:47;9.33;;;6.90;;
7753;SDS011;3921;42.266;23.122;2022-07-23T07:01:14;12.03;;;7.60;;
7753;SDS011;3921;42.266;23.122;2022-07-23T07:03:41;12.33;;;7.60;;
7753;SDS011;3921;42.266;23.122;2022-07-23T07:06:08;18.17;;;8.30;;
7753;SDS011;3921;42.266;23.122;2022-07-23T07:08:35;19.50;;;8.23;;
7753;SDS011;3921;42.266;23.122;2022-07-23T07:11:02;19.80;;;8.97;;
7753;SDS011;3921;42.266;23.122;2022-07-23T07:13:32;23.43;;;10.07;;
7753;SDS011;3921;42.266;23.122;2022-07-23T07:15:59;18.60;;;10.03;;
7753;SDS011;3921;42.266;23.122;2022-07-23T07:18:26;26.50;;;10.17;;
7753;SDS011;3921;42.266;23.122;2022-07-23T07:21:03;22.20;;;10.63;;
7753;SDS011;3921;42.266;23.122;2022-07-23T07:23:31;25.13;;;10.73;;
7753;SDS011;3921;42.266;23.122;2022-07-23T07:25:58;24.67;;;10.30;;
7753;SDS011;3921;42.266;23.122;2022-07-23T07:28:25;22.73;;;10.87;;
7753;SDS011;3921;42.266;23.122;2022-07-23T07:30:53;23.30;;;9.47;;
7753;SDS011;3921;42.266;23.122;2022-07-23T07:33:21;22.37;;;9.87;;
7753;SDS011;3921;42.266;23.122;2022-07-23T07:35:48;24.70;;;10.10;;
7753;SDS011;3921;42.266;23.122;2022-07-23T07:38:15;19.47;;;10.10;;
7753;SDS011;3921;42.266;23.122;2022-07-23T07:40:46;24.50;;;9.50;;
7753;SDS011;3921;42.266;23.122;2022-07-23T07:43:26;20.63;;;9.80;;
7753;SDS011;3921;42.266;23.122;2022-07-23T07:45:55;23.20;;;10.90;;
7753;SDS011;3921;42.266;23.122;2022-07-23T07:48:22;22.17;;;9.13;;
7753;SDS011;3921;42.266;23.122;2022-07-23T07:50:49;20.97;;;9.63;;
7753;SDS011;3921;42.266;23.122;2022-07-23T07:53:16;19.40;;;10.57;;
7753;SDS011;3921;42.266;23.122;2022-07-23T07:55:44;15.90;;;9.20;;
7753;SDS011;3921;42.266;23.122;2022-07-23T07:58:11;17.80;;;9.17;;
7753;SDS011;3921;42.266;23.122;2022-07-23T08:00:38;17.53;;;8.20;;
7753;SDS011;3921;42.266;23.122;2022-07-23T08:03:11;15.33;;;8.30;;
7753;SDS011;3921;42.266;23.122;2022-07-23T08:05:41;18.70;;;8.13;;
7753;SDS011;3921;42.266;23.122;2022-07-23T08:08:08;16.17;;;7.53;;
7753;SDS011;3921;42.266;23.122;2022-07-23T08:10:39;19.20;;;8.47;;
7753;SDS011;3921;42.266;23.122;2022-07-23T08:13:07;16.50;;;8.47;;
7753;SDS011;3921;42.266;23.122;2022-07-23T08:15:34;15.80;;;7.83;;
7753;SDS011;3921;42.266;23.122;2022-07-23T08:18:01;15.30;;;8.37;;
7753;SDS011;3921;42.266;23.122;2022-07-23T08:20:30;18.20;;;9.00;;
7753;SDS011;3921;42.266;23.122;2022-07-23T08:22:57;25.13;;;9.73;;
7753;SDS011;3921;42.266;23.122;2022-07-23T08:25:26;21.43;;;9.20;;
7753;SDS011;3921;42.266;23.122;2022-07-23T08:27:55;17.20;;;8.77;;
7753;SDS011;3921;42.266;23.122;2022-07-23T08:30:22;16.13;;;8.60;;
7753;SDS011;3921;42.266;23.122;2022-07-23T08:32:51;17.13;;;7.67;;
7753;SDS011;3921;42.266;23.122;2022-07-23T08:35:24;12.10;;;7.40;;
7753;SDS011;3921;42.266;23.122;2022-07-23T08:37:54;10.43;;;7.07;;
7753;SDS011;3921;42.266;23.122;2022-07-23T08:40:22;15.00;;;7.87;;
7753;SDS011;3921;42.266;23.122;2022-07-23T08:42:52;9.47;;;7.50;;
7753;SDS011;3921;42.266;23.122;2022-07-23T08:45:19;10.47;;;7.13;;
7753;SDS011;3921;42.266;23.122;2022-07-23T08:47:52;12.77;;;7.70;;
7753;SDS011;3921;42.266;23.122;2022-07-23T08:50:20;14.50;;;7.93;;
7753;SDS011;3921;42.266;23.122;2022-07-23T08:52:49;12.63;;;7.50;;
7753;SDS011;3921;42.266;23.122;2022-07-23T08:55:19;13.43;;;7.83;;
7753;SDS011;3921;42.266;23.122;2022-07-23T08:57:48;16.47;;;7.87;;
7753;SDS011;3921;42.266;23.122;2022-07-23T09:00:16;12.70;;;7.93;;
7753;SDS011;3921;42.266;23.122;2022-07-23T09:02:44;12.20;;;7.87;;
7753;SDS011;3921;42.266;23.122;2022-07-23T09:05:13;14.40;;;8.00;;
7753;SDS011;3921;42.266;23.122;2022-07-23T09:10:44;12.63;;;8.10;;
7753;SDS011;3921;42.266;23.122;2022-07-23T09:13:26;14.67;;;8.30;;
7753;SDS011;3921;42.266;23.122;2022-07-23T09:15:55;15.57;;;7.80;;
7753;SDS011;3921;42.266;23.122;2022-07-23T09:18:30;15.90;;;8.17;;
7753;SDS011;3921;42.266;23.122;2022-07-23T09:21:09;12.00;;;7.87;;
7753;SDS011;3921;42.266;23.122;2022-07-23T09:23:41;12.90;;;7.23;;
7753;SDS011;3921;42.266;23.122;2022-07-23T09:26:25;16.77;;;8.20;;
7753;SDS011;3921;42.266;23.122;2022-07-23T09:28:57;12.10;;;7.53;;
7753;SDS011;3921;42.266;23.122;2022-07-23T09:31:31;10.43;;;7.17;;
7753;SDS011;3921;42.266;23.122;2022-07-23T09:34:06;11.93;;;7.73;;
7753;SDS011;3921;42.266;23.122;2022-07-23T09:36:35;11.97;;;7.17;;
7753;SDS011;3921;42.266;23.122;2022-07-23T09:39:03;12.43;;;7.10;;
7753;SDS011;3921;42.266;23.122;2022-07-23T09:41:36;10.90;;;7.10;;
7753;SDS011;3921;42.266;23.122;2022-07-23T09:44:10;10.87;;;6.93;;
7753;SDS011;3921;42.266;23.122;2022-07-23T09:46:41;17.50;;;7.93;;
7753;SDS011;3921;42.266;23.122;2022-07-23T09:49:10;11.00;;;6.87;;
7753;SDS011;3921;42.266;23.122;2022-07-23T09:51:46;12.87;;;7.20;;
7753;SDS011;3921;42.266;23.122;2022-07-23T09:54:22;12.17;;;6.53;;
7753;SDS011;3921;42.266;23.122;2022-07-23T09:56:57;12.83;;;7.03;;
7753;SDS011;3921;42.266;23.122;2022-07-23T09:59:26;16.83;;;7.20;;
7753;SDS011;3921;42.266;23.122;2022-07-23T10:01:54;11.97;;;7.70;;
7753;SDS011;3921;42.266;23.122;2022-07-23T10:04:24;15.40;;;9.33;;
7753;SDS011;3921;42.266;23.122;2022-07-23T10:06:53;11.60;;;7.70;;
7753;SDS011;3921;42.266;23.122;2022-07-23T10:09:23;16.53;;;8.37;;
7753;SDS011;3921;42.266;23.122;2022-07-23T10:11:54;11.67;;;8.30;;
7753;SDS011;3921;42.266;23.122;2022-07-23T10:14:28;10.33;;;7.90;;
7753;SDS011;3921;42.266;23.122;2022-07-23T10:16:58;10.57;;;7.97;;
7753;SDS011;3921;42.266;23.122;2022-07-23T10:19:26;11.83;;;8.23;;
7753;SDS011;3921;42.266;23.122;2022-07-23T10:21:55;12.90;;;7.80;;
7753;SDS011;3921;42.266;23.122;2022-07-23T10:24:28;14.80;;;7.73;;
7753;SDS011;3921;42.266;23.122;2022-07-23T10:27:09;14.33;;;7.90;;
7753;SDS011;3921;42.266;23.122;2022-07-23T10:30:00;13.90;;;6.90;;
7753;SDS011;3921;42.266;23.122;2022-07-23T10:32:35;16.60;;;7.90;;
7753;SDS011;3921;42.266;23.122;2022-07-23T10:35:09;15.60;;;8.17;;
7753;SDS011;3921;42.266;23.122;2022-07-23T10:37:46;15.30;;;8.03;;
7753;SDS011;3921;42.266;23.122;2022-07-23T10:40:17;14.37;;;8.37;;
7753;SDS011;3921;42.266;23.122;2022-07-23T10:42:58;14.07;;;7.93;;
7753;SDS011;3921;42.266;23.122;2022-07-23T10:45:28;12.87;;;7.67;;
7753;SDS011;3921;42.266;23.122;2022-07-23T10:48:11;13.27;;;8.23;;
7753;SDS011;3921;42.266;23.122;2022-07-23T10:50:40;17.50;;;8.07;;
7753;SDS011;3921;42.266;23.122;2022-07-23T10:53:12;20.13;;;9.53;;
7753;SDS011;3921;42.266;23.122;2022-07-23T10:55:54;19.40;;;8.90;;
7753;SDS011;3921;42.266;23.122;2022-07-23T11:01:35;19.23;;;8.87;;
7753;SDS011;3921;42.266;23.122;2022-07-23T11:04:06;18.63;;;9.17;;
7753;SDS011;3921;42.266;23.122;2022-07-23T11:09:40;24.27;;;8.77;;
7753;SDS011;3921;42.266;23.122;2022-07-23T11:15:03;21.20;;;8.60;;
7753;SDS011;3921;42.266;23.122;2022-07-23T11:17:33;17.90;;;8.80;;
7753;SDS011;3921;42.266;23.122;2022-07-23T11:20:18;22.30;;;8.47;;
7753;SDS011;3921;42.266;23.122;2022-07-23T11:22:48;15.40;;;8.13;;
7753;SDS011;3921;42.266;23.122;2022-07-23T11:25:30;13.73;;;7.40;;
7753;SDS011;3921;42.266;23.122;2022-07-23T11:28:15;14.80;;;7.73;;
7753;SDS011;3921;42.266;23.122;2022-07-23T11:30:47;13.20;;;7.83;;
7753;SDS011;3921;42.266;23.122;2022-07-23T11:33:21;16.60;;;7.33;;
7753;SDS011;3921;42.266;23.122;2022-07-23T11:36:00;11.33;;;6.37;;
7753;SDS011;3921;42.266;23.122;2022-07-23T11:38:29;11.67;;;6.50;;
7753;SDS011;3921;42.266;23.122;2022-07-23T11:40:58;12.83;;;7.00;;
7753;SDS011;3921;42.266;23.122;2022-07-23T11:43:25;14.07;;;6.60;;
7753;SDS011;3921;42.266;23.122;2022-07-23T11:45:54;10.93;;;6.57;;
7753;SDS011;3921;42.266;23.122;2022-07-23T11:48:24;12.20;;;6.27;;
7753;SDS011;3921;42.266;23.122;2022-07-23T11:50:53;17.73;;;6.60;;
7753;SDS011;3921;42.266;23.122;2022-07-23T11:53:28;16.20;;;6.40;;
7753;SDS011;3921;42.266;23.122;2022-07-23T11:56:03;11.67;;;6.30;;
7753;SDS011;3921;42.266;23.122;2022-07-23T11:58:31;12.63;;;6.80;;
7753;SDS011;3921;42.266;23.122;2022-07-23T12:00:59;10.90;;;6.10;;
7753;SDS011;3921;42.266;23.122;2022-07-23T12:03:27;13.50;;;6.30;;
7753;SDS011;3921;42.266;23.122;2022-07-23T12:05:56;13.90;;;6.10;;
7753;SDS011;3921;42.266;23.122;2022-07-23T12:08:24;11.10;;;5.97;;
7753;SDS011;3921;42.266;23.122;2022-07-23T12:10:51;15.27;;;6.73;;
7753;SDS011;3921;42.266;23.122;2022-07-23T12:13:19;13.90;;;6.60;;
7753;SDS011;3921;42.266;23.122;2022-07-23T12:15:50;13.20;;;6.27;;
7753;SDS011;3921;42.266;23.122;2022-07-23T12:18:33;18.00;;;6.27;;
7753;SDS011;3921;42.266;23.122;2022-07-23T12:21:04;13.63;;;6.10;;
7753;SDS011;3921;42.266;23.122;2022-07-23T12:23:32;13.07;;;6.07;;
7753;SDS011;3921;42.266;23.122;2022-07-23T12:26:03;14.13;;;6.43;;
7753;SDS011;3921;42.266;23.122;2022-07-23T12:28:32;14.47;;;6.40;;
7753;SDS011;3921;42.266;23.122;2022-07-23T12:31:02;10.03;;;6.00;;
7753;SDS011;3921;42.266;23.122;2022-07-23T12:33:31;13.83;;;5.93;;
7753;SDS011;3921;42.266;23.122;2022-07-23T12:36:02;12.33;;;6.67;;
7753;SDS011;3921;42.266;23.122;2022-07-23T12:38:36;13.43;;;6.80;;
7753;SDS011;3921;42.266;23.122;2022-07-23T12:41:04;12.03;;;5.87;;
7753;SDS011;3921;42.266;23.122;2022-07-23T12:43:32;11.47;;;6.37;;
7753;SDS011;3921;42.266;23.122;2022-07-23T12:46:02;10.90;;;6.60;;
7753;SDS011;3921;42.266;23.122;2022-07-23T12:48:33;12.43;;;6.70;;
7753;SDS011;3921;42.266;23.122;2022-07-23T12:51:02;15.10;;;7.83;;
7753;SDS011;3921;42.266;23.122;2022-07-23T12:53:41;15.20;;;6.93;;
7753;SDS011;3921;42.266;23.122;2022-07-23T12:56:10;11.33;;;7.03;;
7753;SDS011;3921;42.266;23.122;2022-07-23T12:58:39;12.83;;;6.50;;
7753;SDS011;3921;42.266;23.122;2022-07-23T13:01:08;9.23;;;6.47;;
7753;SDS011;3921;42.266;23.122;2022-07-23T13:03:38;12.37;;;6.03;;
7753;SDS011;3921;42.266;23.122;2022-07-23T13:06:08;12.83;;;6.40;;
7753;SDS011;3921;42.266;23.122;2022-07-23T13:08:38;16.00;;;6.63;;
7753;SDS011;3921;42.266;23.122;2022-07-23T13:11:06;9.67;;;5.67;;
7753;SDS011;3921;42.266;23.122;2022-07-23T13:13:34;10.13;;;5.60;;
7753;SDS011;3921;42.266;23.122;2022-07-23T13:16:01;11.17;;;5.97;;
7753;SDS011;3921;42.266;23.122;2022-07-23T13:18:30;12.83;;;6.00;;
7753;SDS011;3921;42.266;23.122;2022-07-23T13:20:59;14.23;;;6.40;;
7753;SDS011;3921;42.266;23.122;2022-07-23T13:23:26;14.20;;;6.10;;
7753;SDS011;3921;42.266;23.122;2022-07-23T13:25:54;10.60;;;5.87;;
7753;SDS011;3921;42.266;23.122;2022-07-23T13:28:21;13.57;;;5.87;;
7753;SDS011;3921;42.266;23.122;2022-07-23T13:30:49;12.23;;;5.70;;
7753;SDS011;3921;42.266;23.122;2022-07-23T13:33:17;14.03;;;6.00;;
7753;SDS011;3921;42.266;23.122;2022-07-23T13:35:46;12.03;;;6.40;;
7753;SDS011;3921;42.266;23.122;2022-07-23T13:38:15;12.27;;;5.80;;
7753;SDS011;3921;42.266;23.122;2022-07-23T13:40:44;10.73;;;6.03;;
7753;SDS011;3921;42.266;23.122;2022-07-23T13:43:13;9.93;;;5.40;;
7753;SDS011;3921;42.266;23.122;2022-07-23T13:45:43;12.40;;;6.13;;
7753;SDS011;3921;42.266;23.122;2022-07-23T13:48:11;9.43;;;5.90;;
7753;SDS011;3921;42.266;23.122;2022-07-23T13:50:39;9.97;;;5.80;;
7753;SDS011;3921;42.266;23.122;2022-07-23T13:53:09;15.27;;;5.77;;
7753;SDS011;3921;42.266;23.122;2022-07-23T13:55:40;12.47;;;6.30;;
7753;SDS011;3921;42.266;23.122;2022-07-23T13:58:08;9.83;;;5.70;;
7753;SDS011;3921;42.266;23.122;2022-07-23T14:00:36;17.07;;;5.90;;
7753;SDS011;3921;42.266;23.122;2022-07-23T14:03:05;8.93;;;5.80;;
7753;SDS011;3921;42.266;23.122;2022-07-23T14:05:48;9.73;;;5.60;;
7753;SDS011;3921;42.266;23.122;2022-07-23T14:08:16;11.97;;;6.43;;
7753;SDS011;3921;42.266;23.122;2022-07-23T14:10:44;10.83;;;6.40;;
7753;SDS011;3921;42.266;23.122;2022-07-23T14:13:11;12.33;;;5.90;;
7753;SDS011;3921;42.266;23.122;2022-07-23T14:15:38;11.43;;;6.23;;
7753;SDS011;3921;42.266;23.122;2022-07-23T14:18:06;14.17;;;6.20;;
7753;SDS011;3921;42.266;23.122;2022-07-23T14:20:33;11.60;;;6.30;;
7753;SDS011;3921;42.266;23.122;2022-07-23T14:23:01;11.83;;;5.87;;
7753;SDS011;3921;42.266;23.122;2022-07-23T14:25:28;13.10;;;6.17;;
7753;SDS011;3921;42.266;23.122;2022-07-23T14:27:59;13.73;;;6.20;;
7753;SDS011;3921;42.266;23.122;2022-07-23T14:30:27;10.70;;;5.97;;
7753;SDS011;3921;42.266;23.122;2022-07-23T14:32:54;12.03;;;5.97;;
7753;SDS011;3921;42.266;23.122;2022-07-23T14:35:21;11.30;;;6.47;;
7753;SDS011;3921;42.266;23.122;2022-07-23T14:37:48;11.57;;;6.37;;
7753;SDS011;3921;42.266;23.122;2022-07-23T14:40:15;11.60;;;6.13;;
7753;SDS011;3921;42.266;23.122;2022-07-23T14:42:43;12.53;;;5.97;;
7753;SDS011;3921;42.266;23.122;2022-07-23T14:45:12;13.47;;;6.30;;
7753;SDS011;3921;42.266;23.122;2022-07-23T14:47:39;11.37;;;6.07;;
7753;SDS011;3921;42.266;23.122;2022-07-23T14:50:06;9.47;;;5.87;;
7753;SDS011;3921;42.266;23.122;2022-07-23T14:52:34;13.07;;;5.97;;
7753;SDS011;3921;42.266;23.122;2022-07-23T14:55:01;11.27;;;5.97;;
7753;SDS011;3921;42.266;23.122;2022-07-23T14:57:28;9.90;;;5.50;;
7753;SDS011;3921;42.266;23.122;2022-07-23T14:59:55;14.67;;;5.90;;
7753;SDS011;3921;42.266;23.122;2022-07-23T15:02:23;14.80;;;6.67;;
7753;SDS011;3921;42.266;23.122;2022-07-23T15:04:51;8.17;;;6.27;;
7753;SDS011;3921;42.266;23.122;2022-07-23T15:07:18;13.77;;;6.23;;
7753;SDS011;3921;42.266;23.122;2022-07-23T15:09:45;8.50;;;5.77;;
7753;SDS011;3921;42.266;23.122;2022-07-23T15:12:13;8.33;;;6.00;;
7753;SDS011;3921;42.266;23.122;2022-07-23T15:14:41;9.13;;;5.60;;
7753;SDS011;3921;42.266;23.122;2022-07-23T15:17:08;8.87;;;5.63;;
7753;SDS011;3921;42.266;23.122;2022-07-23T15:19:37;9.60;;;5.33;;
7753;SDS011;3921;42.266;23.122;2022-07-23T15:22:04;7.83;;;6.30;;
7753;SDS011;3921;42.266;23.122;2022-07-23T15:24:32;9.93;;;6.03;;
7753;SDS011;3921;42.266;23.122;2022-07-23T15:26:59;12.37;;;6.27;;
7753;SDS011;3921;42.266;23.122;2022-07-23T15:29:26;14.13;;;5.83;;
7753;SDS011;3921;42.266;23.122;2022-07-23T15:31:53;11.40;;;6.30;;
7753;SDS011;3921;42.266;23.122;2022-07-23T15:34:21;14.43;;;5.77;;